Αναφορές METAR από Ελληνικά Αεροδρόμια

Σε αυτή τη σελίδα, μπορείτε να παρακολουθείτε τις αναφορές METAR που προέρχονται από τα κυριότερα αεροδρόμια της Ελλάδας. Το περιεχόμενο αποκωδικοποιείται, οπτικοποιείται και γίνεται κατανοητό από τον καθένα με τη χρήση του όμορφου δίγλωσσου γραφικού περιβάλλοντος του meteothes.gr!

Η αρχική κωδικοποιημένη αναφορά, συμπεριλαμβάνεται επίσης στο κάτω μέρος. Σε όποια καθεστερεί η ενημέρωση, το προειδοποιητικό μήνυμα "Μη ενημερωμένο METAR!" εμφανίζεται στο πάνω μέρος της με κόκκινα γράμματα.

Εχουν προστεθεί επίσης δύο αεροδρόμια από γειτονικές χώρες, την Οχρίδα(ΠΓΔΜ) και την Σόφια(Βουλγαρία) για να ελέγχουμε την εξέλιξη των ψυχρών εισβολών από τα Βόρεια!

LGTS - Thessaloniki/Makedonia-Elev 7m
Απόσταση από meteothes.gr: Ν 13km
Ενημερώθηκε: 21/09/2019 09:50
Διάσπαρτα Nέφη
Διάσπαρτα Nέφη
 Ανεμος από μεταβλητός
Ανεμος: μεταβλητός 6 km/h
Θερμοκρασία: 20°C
Σημ. Δρόσου: 10°C
Υγρασία: 53%
Βαρόμετρο: 1026 hPa
Νέφωση: Διάσπαρτα Nέφη
Ορατότητα: 10 km
Λεπτομέρειες Νεφών: Διάσπαρτα Nέφη 914 m
2019/09/21 06:50 LGTS 210650Z VRB03KT 9999 FEW030 20/10 Q1026 NOSIG
LGAV - Athens/Elef. Venizelos-Elev 94m
Απόσταση από meteothes.gr: ΝΝΑ 312km
Ενημερώθηκε: 21/09/2019 09:50
Διάσπαρτα Nέφη
Διάσπαρτα Nέφη
 Ανεμος από Β
Ανεμος: Β 28 km/h
Θερμοκρασία: 21°C
Σημ. Δρόσου: 8°C
Υγρασία: 43%
Βαρόμετρο: 1023 hPa
Νέφωση: Διάσπαρτα Nέφη
Ορατότητα: 10 km
Λεπτομέρειες Νεφών: Διάσπαρτα Nέφη 914 m
2019/09/21 06:50 LGAV 210650Z 36015KT 9999 FEW030 21/08 Q1023 NOSIG
 
LGAL - Alexandroupolis-Elev 3m
Απόσταση από meteothes.gr: Α 251km
Ενημερώθηκε: 21/09/2019 09:50
Διάσπαρτα Nέφη
Διάσπαρτα Nέφη
 Ανεμος από άπνοια
Ανεμος: άπνοια
Θερμοκρασία: 17°C
Σημ. Δρόσου: 8°C
Υγρασία: 56%
Βαρόμετρο: 1025 hPa
Νέφωση: Διάσπαρτα Nέφη
Ορατότητα: 10 km
Λεπτομέρειες Νεφών: Διάσπαρτα Nέφη 1067 m
2019/09/21 06:50 LGAL 210650Z 00000KT 9999 FEW035 17/08 Q1025
LGKV - Kavala/Crysoupolis-Elev 5m
Απόσταση από meteothes.gr: ΑΒΑ 144km
Ενημερώθηκε: 21/09/2019 09:50
Διάσπαρτα Nέφη
Διάσπαρτα Nέφη
 Ανεμος από Α
Ανεμος: Α 11 km/h
Θερμοκρασία: 16°C
Σημ. Δρόσου: 9°C
Υγρασία: 63%
Βαρόμετρο: 1025 hPa
Νέφωση: Διάσπαρτα Nέφη
Ορατότητα: 10 km
Λεπτομέρειες Νεφών: Διάσπαρτα Nέφη 914 m
2019/09/21 06:50 LGKV 210650Z 09006KT 9999 FEW030 16/09 Q1025
 
LGSK - Skiathos Island-Elev 15m
Απόσταση από meteothes.gr: ΝΝΑ 168km
Ενημερώθηκε: 21/09/2019 09:50
Κυρίως νεφελώδης
Κυρίως νεφελώδης
 Ανεμος από ΒΑ
Ανεμος: ΒΑ 20 km/h
Θερμοκρασία: 20°C
Σημ. Δρόσου: 12°C
Υγρασία: 60%
Βαρόμετρο: 1023 hPa
Νέφωση: Κυρίως νεφελώδης
Ορατότητα: 10 km
Λεπτομέρειες Νεφών: Μερικώς νεφελώδης 305 m
Κυρίως νεφελώδης 762 m
2019/09/21 06:50 LGSK 210650Z 04011KT 9999 SCT010 BKN025 20/12 Q1023
LGLM - Limnos Island-Elev 5m
Απόσταση από meteothes.gr: ΑΝΑ 210km
Ενημερώθηκε: 21/09/2019 09:50
Αίθριος
Αίθριος
 Ανεμος από ΒΑ
Ανεμος: ΒΑ 26 km/h
Θερμοκρασία: 20°C
Σημ. Δρόσου: 7°C
Υγρασία: 43%
Βαρόμετρο: 1023 hPa
Συνθήκες: Αίθριος
Ορατότητα: πάνω από 10 km
2019/09/21 06:50 LGLM 210650Z 05014KT CAVOK 20/07 Q1023
 
LGMT - Mitilini Island-Elev 17m
Απόσταση από meteothes.gr: ΑΝΑ 358km
Ενημερώθηκε: 21/09/2019 09:50
Αίθριος
Αίθριος
 Ανεμος από Β
Ανεμος: Β 22 km/h
Θερμοκρασία: 20°C
Σημ. Δρόσου: 13°C
Υγρασία: 64%
Βαρόμετρο: 1022 hPa
Συνθήκες: Αίθριος
Ορατότητα: πάνω από 10 km
2019/09/21 06:50 LGMT 210650Z 36012KT 330V030 CAVOK 20/13 Q1022
LGSY - Skiros Island-Elev 15m
Απόσταση από meteothes.gr: ΝΑ 227km
Ενημερώθηκε: 21/09/2019 09:50
Διάσπαρτα Nέφη
Διάσπαρτα Nέφη
 Ανεμος από ΒΒΑ
Ανεμος: ΒΒΑ 28 km/h, Ριπή: 46 km/h
Θερμοκρασία: 20°C
Σημ. Δρόσου: 7°C
Υγρασία: 43%
Βαρόμετρο: 1023 hPa
Νέφωση: Διάσπαρτα Nέφη
Ορατότητα: 10 km
Λεπτομέρειες Νεφών: Διάσπαρτα Nέφη 762 m
2019/09/21 06:50 LGSY 210650Z 03015G25KT 9999 FEW025 20/07 Q1023
 
LGKZ - Kozani-Elev 628m
Απόσταση από meteothes.gr: ΔΝΔ 102km
Ενημερώθηκε: 21/09/2019 09:50
Μερικώς νεφελώδης
Μερικώς νεφελώδης
 Ανεμος από Β
Ανεμος: Β 17 km/h
Θερμοκρασία: 12°C
Σημ. Δρόσου: 0°C
Υγρασία: 44%
Βαρόμετρο: 1027 hPa
Νέφωση: Μερικώς νεφελώδης
Ορατότητα: 10 km
Λεπτομέρειες Νεφών: Διάσπαρτα Nέφη 762 m
Μερικώς νεφελώδης 2134 m
2019/09/21 06:50 LGKZ 210650Z 35009KT 9999 FEW025 SCT070 12/M00 Q1027
LGIO - Ioannina-Elev 476m
Απόσταση από meteothes.gr: ΔΝΔ 209km
Ενημερώθηκε: 21/09/2019 09:50
Διάσπαρτα Nέφη
Διάσπαρτα Nέφη
 Ανεμος από μεταβλητός
Ανεμος: μεταβλητός 4 km/h
Θερμοκρασία: 18°C
Σημ. Δρόσου: 9°C
Υγρασία: 56%
Βαρόμετρο: 1022 hPa
Νέφωση: Διάσπαρτα Nέφη
Ορατότητα: 10 km
Λεπτομέρειες Νεφών: Διάσπαρτα Nέφη 1067 m
2019/09/21 06:50 LGIO 210650Z VRB02KT 9999 FEW035 18/09 Q1022
 
LGZA - Zakinthos-Elev 3m
Απόσταση από meteothes.gr: ΝΝΔ 367km
Ενημερώθηκε: 21/09/2019 09:50
Μερικώς νεφελώδης
Μερικώς νεφελώδης
 Ανεμος από Β
Ανεμος: Β 15 km/h
Θερμοκρασία: 25°C
Σημ. Δρόσου: 16°C
Υγρασία: 57%
Βαρόμετρο: 1020 hPa
Νέφωση: Μερικώς νεφελώδης
Ορατότητα: 10 km
Λεπτομέρειες Νεφών: Διάσπαρτα Nέφη 610 m
Μερικώς νεφελώδης 2134 m
2019/09/21 06:50 LGZA 210650Z 01008KT 9999 FEW020 SCT070 25/16 Q1020
LGKR - Corfu Island-Elev 2m
Απόσταση από meteothes.gr: ΔΝΔ 282km
Ενημερώθηκε: 21/09/2019 09:50
Μερικώς νεφελώδης
Μερικώς νεφελώδης
 Ανεμος από άπνοια
Ανεμος: άπνοια
Θερμοκρασία: 24°C
Σημ. Δρόσου: 15°C
Υγρασία: 57%
Βαρόμετρο: 1020 hPa
Νέφωση: Μερικώς νεφελώδης
Ορατότητα: 10 km
Λεπτομέρειες Νεφών: Μερικώς νεφελώδης 762 m
2019/09/21 06:50 LGKR 210650Z 00000KT 9999 SCT025 24/15 Q1020 NOSIG
 
LGSO - Syros Island-Elev 72m
Απόσταση από meteothes.gr: ΝΝΑ 397km
Ενημερώθηκε: 21/09/2019 09:50
Διάσπαρτα Nέφη
Διάσπαρτα Nέφη
 Ανεμος από Β
Ανεμος: Β 30 km/h, Ριπή: 48 km/h
Θερμοκρασία: 21°C
Σημ. Δρόσου: 14°C
Υγρασία: 64%
Βαρόμετρο: 1020 hPa
Νέφωση: Διάσπαρτα Nέφη
Ορατότητα: 10 km
Λεπτομέρειες Νεφών: Διάσπαρτα Nέφη 549 m
2019/09/21 06:50 LGSO 210650Z 36016G26KT 9999 FEW018 21/14 Q1020
LGMK - Mikonos Island-Elev 123m
Απόσταση από meteothes.gr: ΝΝΑ 412km
Ενημερώθηκε: 21/09/2019 09:50
Διάσπαρτα Nέφη
Διάσπαρτα Nέφη
 Ανεμος από Β
Ανεμος: Β 35 km/h, Ριπή: 56 km/h
Θερμοκρασία: 20°C
Σημ. Δρόσου: 14°C
Υγρασία: 69%
Βαρόμετρο: 1019 hPa
Νέφωση: Διάσπαρτα Nέφη
Ορατότητα: 10 km
Λεπτομέρειες Νεφών: Διάσπαρτα Nέφη 305 m
2019/09/21 06:50 LGMK 210650Z 01019G30KT 9999 FEW010 20/14 Q1019
 
LGSR - Santorini Island-Elev 40m
Απόσταση από meteothes.gr: ΝΝΑ 520km
Ενημερώθηκε: 21/09/2019 09:50
Διάσπαρτα Nέφη
Διάσπαρτα Nέφη
 Ανεμος από Β
Ανεμος: Β 35 km/h
Θερμοκρασία: 22°C
Σημ. Δρόσου: 15°C
Υγρασία: 65%
Βαρόμετρο: 1019 hPa
Νέφωση: Διάσπαρτα Nέφη
Ορατότητα: 10 km
Λεπτομέρειες Νεφών: Διάσπαρτα Nέφη 610 m
2019/09/21 06:50 LGSR 210650Z 36019KT 9999 FEW020 22/15 Q1019
LGKL - Kalamata-Elev 8m
Απόσταση από meteothes.gr: Ν 405km
Ενημερώθηκε: 21/09/2019 09:50
Διάσπαρτα Nέφη
Διάσπαρτα Nέφη
 Ανεμος από ΒΒΔ
Ανεμος: ΒΒΔ 15 km/h
Θερμοκρασία: 24°C
Σημ. Δρόσου: 14°C
Υγρασία: 54%
Βαρόμετρο: 1019 hPa
Νέφωση: Διάσπαρτα Nέφη
Ορατότητα: 10 km
Λεπτομέρειες Νεφών: Διάσπαρτα Nέφη 762 m
2019/09/21 06:50 LGKL 210650Z 34008KT 9999 FEW025 24/14 Q1019
 
LGIR - Iraklion/Crete-Elev 5m
Απόσταση από meteothes.gr: ΝΝΑ 622km
Ενημερώθηκε: 21/09/2019 09:50
Κυρίως νεφελώδης
Κυρίως νεφελώδης
 Ανεμος από ΒΒΔ
Ανεμος: ΒΒΔ 24 km/h
Θερμοκρασία: 22°C
Σημ. Δρόσου: 17°C
Υγρασία: 73%
Βαρόμετρο: 1019 hPa
Νέφωση: Κυρίως νεφελώδης
Ορατότητα: 10 km
Λεπτομέρειες Νεφών: Διάσπαρτα Nέφη 610 m
Κυρίως νεφελώδης 762 m
2019/09/21 06:50 LGIR 210650Z 33013KT 9999 FEW020 BKN025 22/17 Q1019 NOSIG
LGRP - Rhodes-Elev 5m
Απόσταση από meteothes.gr: ΝΑ 649km
Ενημερώθηκε: 21/09/2019 09:50
Αίθριος
Αίθριος
 Ανεμος από ΔΒΔ
Ανεμος: ΔΒΔ 19 km/h
Θερμοκρασία: 26°C
Σημ. Δρόσου: 17°C
Υγρασία: 58%
Βαρόμετρο: 1013 hPa
Συνθήκες: Αίθριος
Ορατότητα: πάνω από 10 km
2019/09/21 06:50 LGRP 210650Z 29010KT CAVOK 26/17 Q1013 NOSIG
 
LWOH - Ohrid/FYROM-Elev 761m
Απόσταση από meteothes.gr: ΔΒΔ 188km
Ενημερώθηκε: 21/09/2019 09:30
Αίθριος
Αίθριος
 Ανεμος από ΒΒΔ
Ανεμος: ΒΒΔ 17 km/h
Θερμοκρασία: 12°C
Σημ. Δρόσου: -1°C
Υγρασία: 41%
Βαρόμετρο: 1026 hPa
Συνθήκες: Αίθριος
Ορατότητα: πάνω από 10 km
2019/09/21 06:30 LWOH 210630Z 34009KT CAVOK 12/M01 Q1026
LBSF - Sofia/Bulgaria-Elev 595m
Απόσταση από meteothes.gr: Β 227km
Ενημερώθηκε: 21/09/2019 09:30
Αίθριος
Αίθριος
 Ανεμος από μεταβλητός
Ανεμος: μεταβλητός 4 km/h
Θερμοκρασία: 7°C
Σημ. Δρόσου: 3°C
Υγρασία: 76%
Βαρόμετρο: 1027 hPa
Συνθήκες: Αίθριος
Ορατότητα: πάνω από 10 km
2019/09/21 06:30 LBSF 210630Z VRB02KT CAVOK 07/03 Q1027 NOSIG

(*) Μερικές αναφορές παρουσιάζουν λιγότερα στοιχεία γιατί οι αρχικές είναι ελλιπείς ή έχουν λάθος μορφοποίηση!

Please disable your adblock and script blockers to view this page